Time;durP1;ratioP1;P1;durP2;ratioP2;P2;SDS_P1;SDS_P2;PMS_P1;PMS_P2;Temp;Humidity;BMP_temperature;BMP_pressure;BME280_temperature;BME280_humidity;BME280_pressure;Samples;Min_cycle;Max_cycle;Signal;HPM_P1;HPM_P2
2023/10/21 00:00:35;;;;;;;5.03;2.07;;;;;;;0.98;75.16;102243.91;4917313;29;20511;-66
2023/10/21 00:03:00;;;;;;;2.23;1.70;;;;;;;0.98;74.00;102249.16;4917210;29;20123;-66
2023/10/21 00:05:27;;;;;;;2.63;1.30;;;;;;;1.06;74.50;102252.28;4916206;29;20036;-66
2023/10/21 00:07:53;;;;;;;6.27;1.87;;;;;;;1.07;74.45;102246.13;4920381;29;20040;-66
2023/10/21 00:10:18;;;;;;;3.43;1.70;;;;;;;1.04;73.60;102243.63;4939628;29;20251;-66
2023/10/21 00:12:45;;;;;;;9.50;2.00;;;;;;;1.04;73.62;102243.63;4938514;29;20020;-65
2023/10/21 00:15:11;;;;;;;3.37;1.50;;;;;;;1.00;74.11;102244.69;4937909;29;20087;-66
2023/10/21 00:17:37;;;;;;;2.87;1.70;;;;;;;0.80;73.46;102217.53;4924445;29;20280;-66
2023/10/21 00:20:06;;;;;;;3.50;1.83;;;;;;;0.95;73.96;102238.78;4914665;29;20043;-67
2023/10/21 00:22:33;;;;;;;6.27;3.67;;;;;;;0.79;75.74;102223.69;4915264;29;20036;-67
2023/10/21 00:25:00;;;;;;;3.90;1.57;;;;;;;0.83;74.04;102246.25;4916277;29;20272;-66
2023/10/21 00:27:25;;;;;;;2.33;2.13;;;;;;;0.29;75.34;102176.84;4914812;29;20295;-67
2023/10/21 00:29:51;;;;;;;2.23;2.00;;;;;;;0.55;77.15;102224.69;4914557;29;20276;-67
2023/10/21 00:32:17;;;;;;;3.87;1.90;;;;;;;0.52;76.96;102227.44;4915540;29;20043;-66
2023/10/21 00:34:42;;;;;;;4.03;2.10;;;;;;;0.58;76.86;102261.28;4914125;29;20039;-67
2023/10/21 00:37:08;;;;;;;4.33;2.10;;;;;;;0.35;77.22;102224.66;4915636;29;20071;-67
2023/10/21 00:39:34;;;;;;;5.30;1.80;;;;;;;0.42;77.75;102241.84;4915399;29;20058;-66
2023/10/21 00:42:04;;;;;;;2.53;1.77;;;;;;;0.39;78.38;102241.97;4915633;29;20563;-66
2023/10/21 00:44:30;;;;;;;4.57;1.60;;;;;;;0.45;79.50;102250.44;4915534;29;20276;-67
2023/10/21 00:46:59;;;;;;;3.43;1.40;;;;;;;0.41;79.38;102245.38;4917295;29;20342;-67
2023/10/21 00:49:28;;;;;;;2.40;1.58;;;;;;;0.40;78.25;102235.81;4920835;29;20312;-66
2023/10/21 00:51:55;;;;;;;2.60;1.83;;;;;;;0.22;78.19;102209.41;4920892;29;20103;-67
2023/10/21 00:54:24;;;;;;;4.23;1.80;;;;;;;0.32;79.03;102232.66;4923829;29;20287;-67
2023/10/21 00:56:50;;;;;;;2.80;1.63;;;;;;;0.46;78.36;102254.75;4922074;29;20268;-65
2023/10/21 00:59:15;;;;;;;2.97;1.50;;;;;;;0.36;80.26;102245.56;4920388;29;20051;-66
2023/10/21 01:01:43;;;;;;;2.40;1.63;;;;;;;-0.76;80.31;102057.94;4918748;29;20051;-67
2023/10/21 01:04:10;;;;;;;3.60;1.80;;;;;;;0.33;79.98;102235.22;4919056;29;20036;-66
2023/10/21 01:06:36;;;;;;;6.53;2.37;;;;;;;0.28;80.14;102230.13;4917351;29;20079;-65
2023/10/21 01:09:01;;;;;;;3.10;1.80;;;;;;;0.49;79.48;102251.16;4918951;29;20268;-67
2023/10/21 01:11:27;;;;;;;5.07;1.63;;;;;;;0.55;80.08;102257.00;4918768;29;20297;-67
2023/10/21 01:13:54;;;;;;;2.73;1.90;;;;;;;0.59;78.86;102257.75;4918816;29;20408;-68
2023/10/21 01:16:20;;;;;;;5.43;1.87;;;;;;;0.63;78.98;102259.34;4918609;29;20047;-67
2023/10/21 01:18:45;;;;;;;4.93;1.73;;;;;;;0.46;78.73;102232.94;4918936;29;20276;-66
2023/10/21 01:21:11;;;;;;;2.87;1.53;;;;;;;0.12;78.23;102181.88;4921248;29;20040;-67
2023/10/21 01:23:36;;;;;;;6.77;1.67;;;;;;;0.53;79.21;102255.34;4919601;29;20032;-66
2023/10/21 01:26:03;;;;;;;5.20;1.70;;;;;;;-0.17;80.18;102150.75;4920575;29;20048;-66
2023/10/21 01:28:29;;;;;;;3.77;1.53;;;;;;;0.29;81.17;102233.63;4920129;29;20048;-66
2023/10/21 01:30:55;;;;;;;5.03;1.50;;;;;;;0.39;81.80;102252.44;4918582;29;20280;-66
2023/10/21 01:33:21;;;;;;;2.70;1.30;;;;;;;0.38;81.92;102242.88;4918060;29;20145;-67
2023/10/21 01:35:47;;;;;;;4.17;1.63;;;;;;;0.26;81.88;102234.56;4918440;29;20288;-67
2023/10/21 01:38:15;;;;;;;1.87;1.40;;;;;;;0.02;82.67;102209.38;4918408;29;20276;-68
2023/10/21 01:40:40;;;;;;;1.77;1.57;;;;;;;0.01;83.25;102228.63;4918249;29;20040;-67
2023/10/21 01:43:06;;;;;;;2.90;1.40;;;;;;;0.07;82.34;102254.56;4918306;29;20272;-67
2023/10/21 01:45:37;;;;;;;1.80;1.20;;;;;;;-0.08;84.13;102234.19;4920011;29;20119;-66
2023/10/21 01:48:04;;;;;;;4.00;1.53;;;;;;;-0.16;84.16;102233.63;4921359;29;20058;-66
2023/10/21 01:50:30;;;;;;;4.93;1.70;;;;;;;-0.08;83.56;102255.13;4918379;29;20644;-66
2023/10/21 01:52:56;;;;;;;5.83;1.87;;;;;;;-0.11;84.68;102255.25;4918080;29;20331;-65
2023/10/21 01:55:22;;;;;;;2.50;1.60;;;;;;;-0.18;86.52;102248.53;4918202;29;20359;-66
2023/10/21 01:57:48;;;;;;;3.33;1.80;;;;;;;-0.25;85.81;102255.78;4917013;29;20380;-66
2023/10/21 02:00:23;;;;;;;3.60;1.70;;;;;;;-0.88;86.92;102156.91;4918020;29;20123;-67
2023/10/21 02:02:54;;;;;;;3.00;1.93;;;;;;;-0.28;87.73;102257.66;4918098;29;20276;-66
2023/10/21 02:05:21;;;;;;;3.80;1.70;;;;;;;-0.51;88.33;102229.72;4917831;29;20290;-66
2023/10/21 02:07:48;;;;;;;3.67;1.60;;;;;;;-0.43;88.61;102249.44;4917710;29;20340;-66
2023/10/21 02:10:14;;;;;;;1.70;1.43;;;;;;;-0.42;89.22;102245.06;4916406;29;20368;-66
2023/10/21 02:12:40;;;;;;;3.60;1.60;;;;;;;-0.37;88.78;102253.59;4917891;29;20300;-67
2023/10/21 02:15:11;;;;;;;2.17;1.60;;;;;;;-0.45;88.95;102245.19;4917496;29;20272;-66
2023/10/21 02:17:41;;;;;;;2.90;2.03;;;;;;;-0.55;87.45;102231.59;4918004;29;20286;-67
2023/10/21 02:20:26;;;;;;;2.35;1.65;;;;;;;-0.42;88.15;102245.91;4916655;29;20268;-67
2023/10/21 02:22:52;;;;;;;2.73;1.80;;;;;;;-0.49;87.69;102238.34;4917483;29;20043;-66
2023/10/21 02:25:19;;;;;;;5.10;1.70;;;;;;;-0.50;88.38;102229.66;4917098;29;20039;-67
2023/10/21 02:27:45;;;;;;;3.80;2.00;;;;;;;-0.62;87.54;102214.38;4917472;29;20139;-66
2023/10/21 02:30:14;;;;;;;8.00;2.03;;;;;;;-0.57;88.44;102228.16;4917344;29;20725;-66
2023/10/21 02:32:44;;;;;;;4.07;1.50;;;;;;;-0.85;87.95;102180.38;4917212;29;20128;-65
2023/10/21 02:35:10;;;;;;;3.30;1.60;;;;;;;-0.61;87.87;102229.16;4916080;29;20295;-65
2023/10/21 02:37:35;;;;;;;3.50;2.17;;;;;;;-0.48;88.53;102255.75;4917188;29;20318;-66
2023/10/21 02:40:03;;;;;;;3.37;1.63;;;;;;;-0.51;88.51;102245.41;4917328;29;20116;-66
2023/10/21 02:42:30;;;;;;;5.73;2.50;;;;;;;-0.64;89.15;102226.66;4915968;29;20139;-66
2023/10/21 02:44:57;;;;;;;12.17;7.87;;;;;;;-0.51;91.44;102256.72;4917265;29;20344;-66
2023/10/21 02:47:23;;;;;;;7.13;3.90;;;;;;;-0.61;91.57;102239.63;4917960;29;20040;-65
2023/10/21 02:49:48;;;;;;;6.80;2.03;;;;;;;-0.73;92.17;102220.00;4917045;29;20340;-65
2023/10/21 02:52:14;;;;;;;2.00;1.70;;;;;;;-0.55;92.84;102254.28;4917005;29;20060;-66
2023/10/21 02:54:40;;;;;;;2.73;1.57;;;;;;;-0.66;93.66;102231.09;4916997;29;20123;-68
2023/10/21 02:57:05;;;;;;;4.00;1.80;;;;;;;-0.70;93.71;102237.34;4915717;29;20050;-66
2023/10/21 02:59:31;;;;;;;5.67;2.40;;;;;;;-0.64;94.45;102250.22;4915634;29;20507;-66
2023/10/21 03:01:56;;;;;;;6.20;1.97;;;;;;;-0.78;94.91;102232.41;4916674;29;20044;-65
2023/10/21 03:04:22;;;;;;;5.03;2.40;;;;;;;-0.75;94.22;102237.50;4915424;29;20048;-65
2023/10/21 03:06:47;;;;;;;2.23;1.60;;;;;;;-0.73;93.11;102234.84;4916562;29;20040;-66
2023/10/21 03:09:15;;;;;;;5.57;2.43;;;;;;;-0.68;94.01;102235.53;4916992;29;20512;-66
2023/10/21 03:11:42;;;;;;;7.93;2.55;;;;;;;-0.69;93.28;102241.66;4916749;29;20122;-65
2023/10/21 03:14:07;;;;;;;2.70;1.80;;;;;;;-0.83;92.85;102217.78;4899562;29;20460;-67
2023/10/21 03:16:33;;;;;;;3.37;1.77;;;;;;;-0.79;93.58;102229.84;4916451;29;20040;-67
2023/10/21 03:18:59;;;;;;;7.03;2.27;;;;;;;-1.26;93.62;102153.88;4916408;29;20489;-66
2023/10/21 03:21:24;;;;;;;4.47;2.60;;;;;;;-0.73;93.11;102250.53;4916248;29;20036;-66
2023/10/21 03:23:50;;;;;;;4.07;1.97;;;;;;;-0.83;94.39;102246.56;4915179;29;20044;-66
2023/10/21 03:26:15;;;;;;;4.50;1.90;;;;;;;-1.01;95.64;102222.72;4916381;29;20043;-67
2023/10/21 03:28:43;;;;;;;4.07;2.60;;;;;;;-0.88;95.82;102248.44;4916359;29;20055;-66
2023/10/21 03:31:09;;;;;;;2.20;1.55;;;;;;;-0.82;96.45;102256.09;4916203;29;20508;-66
2023/10/21 03:33:35;;;;;;;4.17;2.37;;;;;;;-1.46;97.56;102157.16;4916093;29;20059;-66
2023/10/21 03:36:07;;;;;;;5.47;2.10;;;;;;;-0.95;97.15;102235.59;4916117;29;20138;-66
2023/10/21 03:38:33;;;;;;;5.43;2.43;;;;;;;-0.85;97.40;102250.97;4916524;29;20279;-66
2023/10/21 03:41:04;;;;;;;6.27;1.97;;;;;;;-0.71;96.29;102267.03;4915939;29;20313;-66
2023/10/21 03:43:31;;;;;;;2.60;1.90;;;;;;;-0.95;96.42;102214.66;4916274;29;20352;-67
2023/10/21 03:46:02;;;;;;;4.10;2.10;;;;;;;-0.64;95.87;102250.22;4916376;29;20300;-65
2023/10/21 03:48:28;;;;;;;5.37;2.40;;;;;;;-0.46;95.04;102270.50;4916144;29;20280;-65
2023/10/21 03:51:07;;;;;;;4.93;2.20;;;;;;;-0.42;93.32;102256.38;4916058;29;20292;-66
2023/10/21 03:53:33;;;;;;;3.07;2.10;;;;;;;-0.36;92.74;102258.78;4916221;29;20133;-65
2023/10/21 03:56:00;;;;;;;4.97;2.67;;;;;;;-0.49;92.63;102239.19;4916008;29;20264;-66
2023/10/21 03:58:26;;;;;;;5.33;2.70;;;;;;;-0.54;91.95;102228.06;4914596;29;20693;-66
2023/10/21 04:00:52;;;;;;;5.77;2.63;;;;;;;-0.41;92.46;102263.31;4914687;29;20343;-65
2023/10/21 04:03:17;;;;;;;5.60;2.20;;;;;;;-0.59;92.63;102236.97;4916096;29;20359;-64
2023/10/21 04:05:43;;;;;;;4.97;2.63;;;;;;;-0.50;93.07;102247.97;4914449;29;20072;-65
2023/10/21 04:08:09;;;;;;;4.97;2.40;;;;;;;-0.65;93.40;102223.19;4915850;29;20043;-64
2023/10/21 04:10:35;;;;;;;9.67;2.40;;;;;;;-0.54;93.03;102245.53;4914502;29;20052;-63
2023/10/21 04:13:01;;;;;;;6.17;3.00;;;;;;;-0.70;93.41;102219.03;4914528;29;20768;-66
2023/10/21 04:15:27;;;;;;;4.67;2.50;;;;;;;-0.90;94.99;102177.03;4916215;29;20087;-66
2023/10/21 04:17:53;;;;;;;6.00;2.60;;;;;;;-0.42;96.15;102259.00;4914530;29;20268;-68
2023/10/21 04:20:18;;;;;;;2.87;2.20;;;;;;;-0.57;97.12;102238.63;4915398;29;20779;-66
2023/10/21 04:22:44;;;;;;;3.27;2.60;;;;;;;-0.34;96.80;102266.56;4919755;29;20507;-67
2023/10/21 04:25:13;;;;;;;6.00;2.40;;;;;;;-0.29;95.68;102261.16;4919481;29;20048;-66
2023/10/21 04:27:39;;;;;;;7.67;3.17;;;;;;;-0.43;96.38;102238.13;4919260;29;20528;-66
2023/10/21 04:30:05;;;;;;;10.53;2.73;;;;;;;-0.41;97.15;102249.38;4919651;29;20072;-66
2023/10/21 04:32:31;;;;;;;5.10;2.03;;;;;;;-0.47;97.64;102262.69;4919537;29;20487;-67
2023/10/21 04:34:58;;;;;;;4.60;2.10;;;;;;;-0.66;97.64;102223.25;4918355;29;20316;-66
2023/10/21 04:37:24;;;;;;;5.47;2.40;;;;;;;-0.36;98.48;102264.00;4919197;29;20319;-65
2023/10/21 04:39:51;;;;;;;5.97;2.93;;;;;;;-0.22;98.37;102281.00;4918109;29;20296;-67
2023/10/21 04:42:17;;;;;;;4.70;2.20;;;;;;;-0.26;97.38;102271.56;4919192;29;20036;-66
2023/10/21 04:44:43;;;;;;;5.03;2.60;;;;;;;-0.40;95.98;102244.09;4918940;29;20359;-66
2023/10/21 04:47:08;;;;;;;3.53;2.37;;;;;;;-0.12;97.41;102287.59;4919209;29;20032;-66
2023/10/21 04:49:34;;;;;;;7.60;3.20;;;;;;;-0.24;97.22;102261.88;4919709;29;20272;-67
2023/10/21 04:52:00;;;;;;;6.00;3.63;;;;;;;-0.27;97.75;102252.38;4917690;29;20056;-65
2023/10/21 04:54:26;;;;;;;3.30;2.27;;;;;;;-0.08;95.21;102287.41;4919024;29;20040;-67
2023/10/21 04:56:51;;;;;;;3.20;2.40;;;;;;;-0.17;95.43;102272.06;4919221;29;20624;-66
2023/10/21 04:59:17;;;;;;;3.80;2.33;;;;;;;-0.22;95.40;102271.38;4918977;29;20046;-68
2023/10/21 05:01:42;;;;;;;7.70;3.07;;;;;;;-0.32;96.31;102256.91;4919266;29;20044;-66
2023/10/21 05:04:10;;;;;;;3.33;2.43;;;;;;;-0.27;96.26;102275.94;4920083;29;20036;-67
2023/10/21 05:06:36;;;;;;;5.33;2.07;;;;;;;-0.27;96.42;102280.31;4919109;29;20040;-65
2023/10/21 05:09:03;;;;;;;5.33;3.30;;;;;;;-0.29;98.01;102267.25;4918920;29;20388;-68
2023/10/21 05:11:30;;;;;;;3.90;2.60;;;;;;;-0.17;98.30;102297.38;4918599;29;20299;-65
2023/10/21 05:13:56;;;;;;;3.77;2.30;;;;;;;-0.40;97.77;102265.03;4917607;29;20280;-68
2023/10/21 05:16:22;;;;;;;6.60;2.40;;;;;;;-0.47;96.48;102253.09;4919641;29;20308;-67
2023/10/21 05:18:48;;;;;;;5.23;2.67;;;;;;;-0.54;97.64;102251.59;4919647;29;20363;-67
2023/10/21 05:21:14;;;;;;;3.50;2.30;;;;;;;-0.36;98.83;102290.19;4919255;29;20035;-66
2023/10/21 05:23:39;;;;;;;5.20;2.57;;;;;;;-0.39;99.72;102289.44;4918590;29;20324;-66
2023/10/21 05:26:05;;;;;;;7.53;3.53;;;;;;;-0.44;100.00;102287.00;4918971;29;20518;-66
2023/10/21 05:28:31;;;;;;;4.83;2.90;;;;;;;-0.39;99.26;102298.16;4918239;29;20032;-67
2023/10/21 05:30:57;;;;;;;6.53;2.90;;;;;;;-0.55;100.00;102265.59;4917160;29;20036;-65
2023/10/21 05:33:23;;;;;;;10.63;3.93;;;;;;;-0.52;100.00;102270.72;4918686;29;20036;-67
2023/10/21 05:35:49;;;;;;;8.63;2.87;;;;;;;-0.52;100.00;102259.41;4917429;29;20617;-66
2023/10/21 05:38:14;;;;;;;9.67;2.60;;;;;;;-0.15;100.00;102301.66;4918417;29;20387;-66
2023/10/21 05:40:43;;;;;;;4.73;2.73;;;;;;;-0.08;100.00;102304.88;4918550;29;20407;-67
2023/10/21 05:43:09;;;;;;;42.53;23.23;;;;;;;-0.07;100.00;102309.22;4918389;29;20099;-67
2023/10/21 05:45:34;;;;;;;8.10;4.10;;;;;;;-0.15;100.00;102295.56;4918132;29;20140;-66
2023/10/21 05:48:00;;;;;;;3.77;2.77;;;;;;;-0.02;100.00;102309.91;4916962;29;20123;-66
2023/10/21 05:50:25;;;;;;;7.50;3.87;;;;;;;0.11;100.00;102318.16;4917887;29;20032;-69
2023/10/21 05:52:55;;;;;;;8.20;3.33;;;;;;;0.15;100.00;102320.59;4918113;29;20047;-67
2023/10/21 05:55:21;;;;;;;10.63;3.00;;;;;;;0.22;100.00;102322.09;4918395;29;20086;-66
2023/10/21 05:57:47;;;;;;;20.03;12.23;;;;;;;0.22;100.00;102300.25;4918512;29;20370;-66
2023/10/21 06:00:13;;;;;;;9.07;5.90;;;;;;;0.19;100.00;102284.66;4918529;29;20033;-66
2023/10/21 06:02:39;;;;;;;19.23;4.93;;;;;;;0.46;99.67;102324.69;4918178;29;20036;-67
2023/10/21 06:05:05;;;;;;;7.00;2.70;;;;;;;0.56;97.28;102333.88;4917984;29;20570;-68
2023/10/21 06:07:31;;;;;;;10.73;3.60;;;;;;;0.57;97.46;102332.97;4916906;29;20328;-65
2023/10/21 06:09:57;;;;;;;7.50;2.80;;;;;;;0.40;96.18;102306.56;4919608;29;20040;-66
2023/10/21 06:12:22;;;;;;;8.73;3.10;;;;;;;0.35;97.26;102303.28;4916890;29;20320;-67
2023/10/21 06:14:48;;;;;;;7.07;2.53;;;;;;;0.29;95.93;102320.97;4901127;29;20048;-68
2023/10/21 06:17:14;;;;;;;2.90;2.23;;;;;;;0.11;95.74;102316.41;4900533;29;20416;-70
2023/10/21 06:19:39;;;;;;;7.93;2.60;;;;;;;0.03;95.68;102305.38;4904297;29;20548;-67
2023/10/21 06:22:05;;;;;;;6.53;2.40;;;;;;;0.14;95.83;102331.16;4901659;29;20040;-67
2023/10/21 06:24:30;;;;;;;4.50;2.70;;;;;;;-0.07;96.75;102304.84;4907870;29;20033;-66
2023/10/21 06:26:58;;;;;;;3.10;2.13;;;;;;;0.16;97.77;102337.19;4913710;29;20123;-67
2023/10/21 06:29:23;;;;;;;4.97;3.17;;;;;;;0.20;98.29;102338.78;4911643;29;20036;-67
2023/10/21 06:31:50;;;;;;;5.23;2.63;;;;;;;0.19;98.48;102329.19;4913835;29;20367;-67
2023/10/21 06:34:15;;;;;;;4.40;2.57;;;;;;;0.26;97.53;102346.41;4907162;29;20079;-67
2023/10/21 06:36:42;;;;;;;6.57;2.57;;;;;;;0.14;96.84;102329.38;4911029;29;20312;-68
2023/10/21 06:39:07;;;;;;;4.17;2.40;;;;;;;0.22;96.02;102336.94;4906070;29;20440;-66
2023/10/21 06:41:33;;;;;;;10.07;3.40;;;;;;;0.20;94.11;102336.16;4903219;29;20376;-67
2023/10/21 06:43:59;;;;;;;6.07;2.97;;;;;;;0.19;94.79;102322.19;4907174;29;20107;-67
2023/10/21 06:46:25;;;;;;;4.87;3.13;;;;;;;-0.08;94.25;102268.22;4908805;29;20060;-67
2023/10/21 06:48:50;;;;;;;9.03;3.37;;;;;;;0.24;94.98;102314.16;4906435;29;20076;-68
2023/10/21 06:51:17;;;;;;;9.23;3.43;;;;;;;0.47;94.36;102347.34;4908001;29;20056;-67
2023/10/21 06:53:43;;;;;;;9.07;3.50;;;;;;;-0.34;93.44;102211.59;4904925;29;20047;-69
2023/10/21 06:56:10;;;;;;;5.73;3.20;;;;;;;0.70;93.08;102355.19;4913766;29;20849;-69
2023/10/21 06:58:37;;;;;;;7.80;3.70;;;;;;;0.85;91.65;102354.56;4904825;29;20281;-68
2023/10/21 07:01:02;;;;;;;8.23;3.73;;;;;;;0.95;90.50;102343.72;4915905;29;20264;-68
2023/10/21 07:03:29;;;;;;;6.90;3.23;;;;;;;1.10;88.90;102364.06;4923704;29;20357;-66
2023/10/21 07:05:54;;;;;;;9.10;3.83;;;;;;;1.15;88.30;102368.19;4925488;29;20036;-67
2023/10/21 07:08:20;;;;;;;6.37;3.13;;;;;;;1.15;88.50;102364.72;4928941;29;20288;-69
2023/10/21 07:10:45;;;;;;;11.77;3.63;;;;;;;1.09;87.75;102363.22;4920640;29;20123;-68
2023/10/21 07:13:11;;;;;;;7.37;3.73;;;;;;;1.00;88.21;102353.09;4912630;29;20032;-69
2023/10/21 07:15:36;;;;;;;5.70;3.07;;;;;;;1.06;89.53;102352.00;4908606;29;20087;-70
2023/10/21 07:18:02;;;;;;;11.20;3.57;;;;;;;1.29;89.56;102379.91;4907311;29;20043;-68
2023/10/21 07:20:28;;;;;;;10.50;3.33;;;;;;;1.36;88.20;102371.72;4907082;29;20043;-63
2023/10/21 07:22:54;;;;;;;7.37;4.27;;;;;;;1.38;87.38;102363.78;4912955;29;20036;-68
2023/10/21 07:25:20;;;;;;;5.07;3.10;;;;;;;1.34;87.21;102356.97;4915620;29;20051;-65
2023/10/21 07:27:46;;;;;;;6.50;3.50;;;;;;;1.17;88.07;102334.06;4911188;29;20305;-64
2023/10/21 07:30:12;;;;;;;7.77;4.30;;;;;;;0.83;87.73;102288.19;4910844;29;20372;-65
2023/10/21 07:32:38;;;;;;;9.40;4.33;;;;;;;1.14;87.60;102344.66;4903866;29;20274;-66
2023/10/21 07:35:04;;;;;;;8.90;3.87;;;;;;;1.28;87.49;102368.56;4906835;29;20292;-63
2023/10/21 07:37:30;;;;;;;5.60;3.33;;;;;;;1.28;87.36;102372.97;4914780;29;20125;-67
2023/10/21 07:40:00;;;;;;;4.47;3.00;;;;;;;1.12;86.62;102341.25;4916817;29;20272;-64
2023/10/21 07:42:26;;;;;;;7.03;3.47;;;;;;;1.28;87.42;102379.06;4918455;29;20489;-64
2023/10/21 07:44:53;;;;;;;14.70;3.40;;;;;;;0.85;87.23;102302.09;4917436;29;20279;-65
2023/10/21 07:47:19;;;;;;;4.70;3.03;;;;;;;1.13;86.34;102361.31;4917285;29;20288;-67
2023/10/21 07:49:44;;;;;;;7.80;3.27;;;;;;;1.20;86.06;102365.41;4917866;29;20320;-66
2023/10/21 07:52:10;;;;;;;8.83;3.93;;;;;;;1.31;86.91;102376.31;4917783;29;20287;-66
2023/10/21 07:54:39;;;;;;;6.73;3.00;;;;;;;1.33;86.17;102355.25;4931379;29;20059;-66
2023/10/21 07:57:05;;;;;;;5.28;3.88;;;;;;;1.26;85.72;102351.19;4915770;29;20063;-67
2023/10/21 07:59:31;;;;;;;8.90;3.83;;;;;;;1.38;85.76;102363.78;4916040;29;20055;-66
2023/10/21 08:01:57;;;;;;;6.17;3.50;;;;;;;1.58;85.87;102391.84;4898674;29;20295;-67
2023/10/21 08:04:23;;;;;;;4.27;3.00;;;;;;;1.55;84.75;102372.66;4915882;29;20768;-67
2023/10/21 08:06:52;;;;;;;7.57;3.13;;;;;;;1.82;84.71;102380.28;4915037;29;20111;-69
2023/10/21 08:09:20;;;;;;;8.20;2.72;;;;;;;1.82;83.56;102359.25;4915627;29;20383;-66
2023/10/21 08:11:46;;;;;;;6.45;2.70;;;;;;;2.03;82.70;102392.47;4914135;29;20576;-66
2023/10/21 08:14:12;;;;;;;5.60;3.23;;;;;;;1.99;81.86;102364.59;4914273;29;20047;-68
2023/10/21 08:16:38;;;;;;;5.80;3.07;;;;;;;1.94;80.75;102347.34;4914125;29;20040;-68
2023/10/21 08:19:06;;;;;;;4.73;2.80;;;;;;;2.26;80.97;102374.81;4914420;29;20525;-68
2023/10/21 08:21:38;;;;;;;5.47;2.97;;;;;;;2.18;80.57;102347.09;4914453;29;20356;-70
2023/10/21 08:24:04;;;;;;;10.13;2.90;;;;;;;2.37;79.21;102377.81;4914707;29;20280;-70
2023/10/21 08:26:35;;;;;;;6.60;2.90;;;;;;;1.96;80.39;102316.59;4914603;29;20040;-68
2023/10/21 08:29:04;;;;;;;8.20;2.60;;;;;;;2.37;80.30;102388.34;4914950;29;20879;-69
2023/10/21 08:31:29;;;;;;;5.97;2.58;;;;;;;2.17;79.25;102358.53;4930855;29;20272;-68
2023/10/21 08:33:58;;;;;;;7.03;3.47;;;;;;;2.27;79.33;102376.50;4916683;29;20055;-69
2023/10/21 08:36:23;;;;;;;8.82;4.20;;;;;;;2.32;80.23;102377.19;4914186;29;20050;-70
2023/10/21 08:38:50;;;;;;;6.00;2.30;;;;;;;2.24;78.63;102376.66;4915663;29;20496;-68
2023/10/21 08:41:36;;;;;;;6.23;2.30;;;;;;;2.34;77.73;102386.69;4915276;29;20076;-70
2023/10/21 08:44:06;;;;;;;7.40;3.35;;;;;;;0.98;79.00;102157.34;4912910;29;20275;-67
2023/10/21 08:46:38;;;;;;;8.48;3.00;;;;;;;2.30;79.50;102387.72;4914541;29;20059;-72
2023/10/21 08:49:28;;;;;;;9.30;4.63;;;;;;;2.23;79.75;102377.56;4899188;29;20099;-71
2023/10/21 08:51:58;;;;;;;3.57;2.60;;;;;;;2.20;78.63;102360.16;4915035;29;20327;-71
2023/10/21 08:54:27;;;;;;;4.13;2.53;;;;;;;2.27;78.48;102377.34;4913946;29;20664;-65
2023/10/21 08:56:53;;;;;;;6.83;2.20;;;;;;;2.36;78.01;102392.75;4915219;29;20296;-66
2023/10/21 08:59:18;;;;;;;2.80;1.90;;;;;;;2.34;79.24;102383.22;4930039;29;20331;-65
2023/10/21 09:02:13;;;;;;;4.13;2.15;;;;;;;2.45;78.46;102391.44;4915210;29;20052;-66
2023/10/21 09:04:39;;;;;;;6.43;2.83;;;;;;;2.34;77.77;102373.56;4911944;29;20048;-65
2023/10/21 09:07:05;;;;;;;3.33;2.37;;;;;;;2.40;77.81;102375.03;4915051;29;20328;-66
2023/10/21 09:09:30;;;;;;;7.27;2.20;;;;;;;2.40;77.32;102373.25;4916155;29;20126;-66
2023/10/21 09:12:14;;;;;;;3.83;2.57;;;;;;;2.65;76.94;102399.28;4918434;29;20653;-65
2023/10/21 09:15:05;;;;;;;5.33;2.43;;;;;;;2.55;76.91;102373.47;4918294;29;20315;-65
2023/10/21 09:17:56;;;;;;;4.77;1.90;;;;;;;2.60;76.87;102393.38;4894048;29;20277;-66
2023/10/21 09:20:22;;;;;;;1.90;1.50;;;;;;;2.64;77.70;102396.72;4918039;29;20795;-67
2023/10/21 09:23:02;;;;;;;6.00;2.40;;;;;;;1.49;77.58;102177.78;4918731;29;20291;-66
2023/10/21 09:25:28;;;;;;;3.43;2.00;;;;;;;2.89;77.52;102373.59;4918313;29;20669;-65
2023/10/21 09:27:57;;;;;;;3.70;2.60;;;;;;;2.70;76.34;102334.16;4918271;29;20296;-66
2023/10/21 09:30:36;;;;;;;3.47;2.13;;;;;;;2.99;76.09;102369.56;4918489;29;20356;-66
2023/10/21 09:33:09;;;;;;;2.60;2.13;;;;;;;2.78;75.76;102337.25;4918078;29;20276;-65
2023/10/21 09:35:40;;;;;;;6.63;3.60;;;;;;;2.72;75.48;102348.06;4918199;29;20284;-66
2023/10/21 09:38:51;;;;;;;4.87;2.27;;;;;;;2.70;75.47;102365.72;4918634;29;20282;-66
2023/10/21 09:41:19;;;;;;;3.47;2.23;;;;;;;2.66;75.80;102363.31;4913346;29;20303;-65
2023/10/21 09:43:48;;;;;;;3.37;2.70;;;;;;;2.52;76.30;102335.00;4918393;29;20268;-66
2023/10/21 09:46:17;;;;;;;6.43;2.47;;;;;;;2.51;75.82;102335.09;4918103;29;20312;-66
2023/10/21 09:48:51;;;;;;;5.73;2.67;;;;;;;2.35;76.60;102295.53;4917205;29;20707;-66
2023/10/21 09:51:31;;;;;;;5.17;2.17;;;;;;;2.70;76.12;102338.56;4919019;29;20296;-65
2023/10/21 09:54:03;;;;;;;5.90;2.60;;;;;;;2.89;75.62;102341.13;4918848;29;20354;-68
2023/10/21 09:56:32;;;;;;;5.63;2.90;;;;;;;3.00;75.28;102352.00;4917267;29;20280;-65
2023/10/21 09:58:59;;;;;;;4.85;2.72;;;;;;;2.95;76.09;102339.09;4918147;29;20284;-65
2023/10/21 10:01:26;;;;;;;3.80;2.47;;;;;;;3.05;75.86;102360.53;4919409;29;20110;-66
2023/10/21 10:03:55;;;;;;;6.30;2.60;;;;;;;3.04;74.83;102343.03;4918592;29;20668;-68
2023/10/21 10:06:21;;;;;;;;;;;;;;;3.14;74.96;102346.06;4917119;29;20304;-65
2023/10/21 10:08:52;;;;;;;3.73;2.23;;;;;;;3.08;73.24;102349.84;4918060;29;19919;-66
2023/10/21 10:11:25;;;;;;;5.53;2.87;;;;;;;3.09;73.39;102320.81;4917979;29;20783;-66
2023/10/21 10:13:50;;;;;;;5.27;2.73;;;;;;;3.09;72.69;102318.19;4932218;29;20324;-66
2023/10/21 10:16:29;;;;;;;9.20;2.42;;;;;;;3.25;72.78;102341.97;4916337;29;20276;-68
2023/10/21 10:18:57;;;;;;;6.47;2.40;;;;;;;3.10;73.78;102319.03;4900537;29;20044;-64
2023/10/21 10:21:23;;;;;;;5.70;2.33;;;;;;;3.26;74.39;102324.41;4900510;29;20759;-65
2023/10/21 10:23:58;;;;;;;6.07;2.60;;;;;;;3.30;74.09;102326.78;4917889;29;20044;-66
2023/10/21 10:26:36;;;;;;;7.57;3.00;;;;;;;3.32;73.83;102327.56;4917272;29;20047;-65
2023/10/21 10:29:19;;;;;;;9.98;3.15;;;;;;;3.18;72.64;102293.19;4917826;29;20276;-65
2023/10/21 10:31:45;;;;;;;5.20;2.73;;;;;;;3.32;73.29;102308.28;4916359;29;20075;-66
2023/10/21 10:34:10;;;;;;;8.43;2.80;;;;;;;3.34;73.32;102294.09;4917412;29;20367;-66
2023/10/21 10:36:36;;;;;;;5.33;2.90;;;;;;;3.50;72.42;102324.94;4917751;29;20404;-64
2023/10/21 10:39:04;;;;;;;9.13;3.17;;;;;;;3.47;71.95;102320.69;4917359;29;20127;-66
2023/10/21 10:41:31;;;;;;;5.90;2.97;;;;;;;3.55;71.90;102317.63;4916177;29;20040;-67
2023/10/21 10:44:03;;;;;;;4.87;2.50;;;;;;;3.62;69.77;102319.00;4917425;29;20264;-67
2023/10/21 10:46:30;;;;;;;4.77;2.67;;;;;;;3.54;69.95;102294.88;4917265;29;20299;-66
2023/10/21 10:49:00;;;;;;;6.07;2.70;;;;;;;3.71;69.65;102297.44;4916840;29;20428;-65
2023/10/21 10:51:28;;;;;;;4.50;3.07;;;;;;;3.64;68.73;102288.16;4917206;29;20617;-66
2023/10/21 10:54:00;;;;;;;5.10;3.57;;;;;;;3.49;69.04;102286.34;4917730;29;20295;-65
2023/10/21 10:56:39;;;;;;;5.73;3.33;;;;;;;3.42;69.29;102302.44;4917387;29;20748;-66
2023/10/21 10:59:05;;;;;;;6.50;3.50;;;;;;;3.50;68.63;102315.25;4917001;29;20304;-65
2023/10/21 11:01:31;;;;;;;5.57;3.10;;;;;;;3.29;68.49;102285.59;4917374;29;20276;-66
2023/10/21 11:04:01;;;;;;;4.50;2.63;;;;;;;3.37;68.90;102304.47;4917243;29;20036;-66
2023/10/21 11:06:33;;;;;;;9.40;3.10;;;;;;;3.15;69.18;102287.19;4917268;29;20036;-67
2023/10/21 11:08:59;;;;;;;5.53;2.30;;;;;;;3.07;68.44;102264.75;4917383;29;20304;-66
2023/10/21 11:11:27;;;;;;;4.37;2.17;;;;;;;3.30;69.04;102296.97;4915485;29;20272;-67
2023/10/21 11:13:53;;;;;;;5.93;2.30;;;;;;;3.32;69.00;102301.22;4915501;29;20276;-65
2023/10/21 11:16:20;;;;;;;5.50;2.60;;;;;;;3.32;69.59;102298.59;4915755;29;20648;-65
2023/10/21 11:18:45;;;;;;;2.83;1.80;;;;;;;3.08;70.45;102260.34;4916787;29;20268;-66
2023/10/21 11:21:11;;;;;;;4.63;1.93;;;;;;;3.35;70.94;102295.81;4916939;29;20283;-66
2023/10/21 11:23:37;;;;;;;7.70;1.97;;;;;;;3.40;70.61;102291.16;4916553;29;20075;-66
2023/10/21 11:26:07;;;;;;;7.27;2.30;;;;;;;3.39;69.70;102275.41;4916419;29;20500;-64
2023/10/21 11:28:36;;;;;;;4.80;2.07;;;;;;;3.52;69.34;102296.72;4916321;29;20063;-65
2023/10/21 11:31:03;;;;;;;4.50;2.10;;;;;;;3.52;69.52;102286.19;4916605;29;20268;-65